Bradley, California
Current Conditions -  °F | °C
As of 5:53 PM on Wednesday 22 Oct 2014 (Local Time) from KPRB Reporting Station
Clear Clear  
Wind Chill: 76°   Ceiling: Unl
Heat Index: 76°   Visibility: 10mi
Dew Point: 32°   Wind: 10mph
Humidity: 20%   Direction: 90°E
Pressure: 29.98"   Gusts: NA
Location:  35.86°N, 120.8°W
Report Text: KPRB 230053Z AUTO 09009KT 10SM CLR 24/00 A2998 RMK AO2 SLP148 T02440000 TSNO
Loading
Personal Weather Stations






























Interactive Weather Map
Tropical Storm Tracking
New forecast layout! Learn more

10-Day Weather Forecast

Advertisements
Track Severe Weather on mobile